createdAt,value
2019-01-28T00:01:51.820Z,2.67
2019-01-28T00:04:20.721Z,3.17
2019-01-28T00:06:49.671Z,3.00
2019-01-28T00:09:18.936Z,2.80
2019-01-28T00:12:15.172Z,2.60
2019-01-28T00:15:03.692Z,3.07
2019-01-28T00:17:32.703Z,2.93
2019-01-28T00:20:30.722Z,2.70
2019-01-28T00:22:59.610Z,2.53
2019-01-28T00:25:28.501Z,2.90
2019-01-28T00:27:57.764Z,2.53
2019-01-28T00:30:26.730Z,2.80
2019-01-28T00:32:55.626Z,2.20
2019-01-28T00:35:24.848Z,3.23
2019-01-28T00:37:53.707Z,2.60
2019-01-28T00:40:22.591Z,3.40
2019-01-28T00:43:00.954Z,2.40
2019-01-28T00:45:29.879Z,2.73
2019-01-28T00:47:58.776Z,2.20
2019-01-28T00:50:28.018Z,2.57
2019-01-28T00:52:56.930Z,2.43
2019-01-28T00:55:25.810Z,2.40
2019-01-28T00:57:54.700Z,2.00
2019-01-28T01:00:24.511Z,2.10
2019-01-28T01:02:53.395Z,1.93
2019-01-28T01:05:29.101Z,1.93
2019-01-28T01:07:57.951Z,1.90
2019-01-28T01:10:26.841Z,2.27
2019-01-28T01:12:56.156Z,1.90
2019-01-28T01:18:54.305Z,1.87
2019-01-28T01:21:23.162Z,1.83
2019-01-28T01:23:52.413Z,1.90
2019-01-28T01:26:21.296Z,1.73
2019-01-28T01:28:50.184Z,1.50
2019-01-28T01:31:19.062Z,1.83
2019-01-28T01:33:48.303Z,1.60
2019-01-28T01:36:17.215Z,1.63
2019-01-28T01:38:46.098Z,1.73
2019-01-28T01:41:15.000Z,1.80
2019-01-28T01:43:44.281Z,1.70
2019-01-28T01:46:13.958Z,1.90
2019-01-28T01:48:42.817Z,1.50
2019-01-28T01:51:41.851Z,1.73
2019-01-28T01:54:10.722Z,1.90
2019-01-28T01:56:40.376Z,1.50
2019-01-28T01:59:09.266Z,1.40
2019-01-28T02:05:01.265Z,1.47
2019-01-28T02:07:30.168Z,1.90
2019-01-28T02:09:59.077Z,2.20
2019-01-28T02:12:27.985Z,1.90
2019-01-28T02:14:56.918Z,2.20
2019-01-28T02:17:25.810Z,1.60
2019-01-28T02:19:55.068Z,1.43
2019-01-28T02:22:24.406Z,2.43
2019-01-28T02:24:53.304Z,2.13
2019-01-28T02:30:33.223Z,1.70
2019-01-28T02:33:02.149Z,1.80
2019-01-28T02:35:31.002Z,2.10
2019-01-28T02:38:05.840Z,1.70
2019-01-28T02:40:34.754Z,2.30
2019-01-28T02:43:03.677Z,1.93
2019-01-28T02:45:32.613Z,2.30
2019-01-28T02:48:46.397Z,1.83
2019-01-28T02:51:15.335Z,1.47
2019-01-28T02:53:44.776Z,1.90
2019-01-28T02:56:14.024Z,2.10
2019-01-28T02:58:43.380Z,1.87
2019-01-28T03:01:12.844Z,2.77
2019-01-28T03:03:41.743Z,1.60
2019-01-28T03:06:10.613Z,1.80
2019-01-28T03:08:40.353Z,1.50
2019-01-28T03:11:14.648Z,1.87
2019-01-28T03:13:43.884Z,1.40
2019-01-28T03:16:12.785Z,1.87
2019-01-28T03:18:41.682Z,1.80
2019-01-28T03:21:10.928Z,1.83
2019-01-28T03:23:40.156Z,1.37
2019-01-28T03:26:09.055Z,1.30
2019-01-28T03:28:38.311Z,1.30
2019-01-28T03:31:07.205Z,1.20
2019-01-28T03:33:36.118Z,1.40
2019-01-28T03:36:06.414Z,1.40
2019-01-28T03:38:35.277Z,1.30
2019-01-28T03:41:04.405Z,1.20
2019-01-28T03:43:33.318Z,1.07
2019-01-28T03:46:09.826Z,1.40
2019-01-28T03:48:46.463Z,1.10
2019-01-28T03:51:15.327Z,0.97
2019-01-28T03:53:56.906Z,1.10
2019-01-28T03:56:26.223Z,1.20
2019-01-28T03:58:55.180Z,1.03
2019-01-28T04:01:24.110Z,1.10
2019-01-28T04:03:52.993Z,0.97
2019-01-28T04:06:21.878Z,1.30
2019-01-28T04:08:50.824Z,1.37
2019-01-28T04:14:30.527Z,1.40
2019-01-28T04:16:59.497Z,1.20
2019-01-28T04:19:28.396Z,1.20
2019-01-28T04:21:57.323Z,1.27
2019-01-28T04:24:26.177Z,1.47
2019-01-28T04:26:55.168Z,1.70
2019-01-28T04:29:24.072Z,1.77
2019-01-28T04:31:52.956Z,1.60
2019-01-28T04:34:21.844Z,1.10
2019-01-28T04:36:50.733Z,1.40
2019-01-28T04:39:20.168Z,1.60
2019-01-28T04:45:04.725Z,0.80
2019-01-28T04:47:33.622Z,1.00
2019-01-28T04:50:02.555Z,0.70
2019-01-28T04:52:37.653Z,0.70
2019-01-28T04:55:06.555Z,0.60
2019-01-28T04:57:36.165Z,0.83
2019-01-28T05:00:06.882Z,0.70
2019-01-28T05:02:35.772Z,0.60
2019-01-28T05:05:05.681Z,0.60
2019-01-28T05:07:34.553Z,0.87
2019-01-28T05:10:05.608Z,1.40
2019-01-28T05:12:34.524Z,1.03
2019-01-28T05:15:03.458Z,1.13
2019-01-28T05:17:38.174Z,2.97
2019-01-28T05:20:09.108Z,0.73
2019-01-28T05:22:38.264Z,0.67
2019-01-28T05:25:08.037Z,10.43
2019-01-28T05:27:36.954Z,1.13
2019-01-28T05:30:07.415Z,0.60
2019-01-28T05:32:36.321Z,0.80
2019-01-28T05:35:05.963Z,0.70
2019-01-28T05:37:34.895Z,0.60
2019-01-28T05:40:05.361Z,0.67
2019-01-28T05:42:34.345Z,0.53
2019-01-28T05:45:03.207Z,0.90
2019-01-28T05:47:39.053Z,0.50
2019-01-28T05:50:08.309Z,0.50
2019-01-28T05:52:37.245Z,0.67
2019-01-28T05:55:19.103Z,0.40
2019-01-28T05:57:48.365Z,0.70
2019-01-28T06:01:02.535Z,0.70
2019-01-28T06:03:31.437Z,0.70
2019-01-28T06:08:53.603Z,0.70
2019-01-28T06:11:22.444Z,0.80
2019-01-28T06:13:51.352Z,0.70
2019-01-28T06:16:20.243Z,1.00
2019-01-28T06:18:49.497Z,0.70
2019-01-28T06:21:18.392Z,0.60
2019-01-28T06:23:47.397Z,0.80
2019-01-28T06:26:16.301Z,0.90
2019-01-28T06:28:45.188Z,1.30
2019-01-28T06:31:14.578Z,1.00
2019-01-28T06:33:43.687Z,0.80
2019-01-28T06:36:12.646Z,1.10
2019-01-28T06:38:41.992Z,1.10
2019-01-28T06:41:27.740Z,0.70
2019-01-28T06:43:56.953Z,0.90
2019-01-28T06:46:26.297Z,0.90
2019-01-28T06:48:55.171Z,0.80
2019-01-28T06:54:34.962Z,0.90
2019-01-28T06:57:04.319Z,0.90
2019-01-28T06:59:33.203Z,0.77
2019-01-28T07:02:02.560Z,0.90
2019-01-28T07:04:31.798Z,0.70
2019-01-28T07:07:00.716Z,0.50
2019-01-28T07:09:29.656Z,0.63
2019-01-28T07:11:58.600Z,0.83
2019-01-28T07:14:27.949Z,1.00
2019-01-28T07:16:56.914Z,0.90
2019-01-28T07:19:28.926Z,0.70
2019-01-28T07:21:56.800Z,0.90
2019-01-28T07:24:25.717Z,0.80
2019-01-28T07:27:00.698Z,1.10
2019-01-28T07:29:30.062Z,1.13
2019-01-28T07:32:00.144Z,1.30
2019-01-28T07:34:29.181Z,1.07
2019-01-28T07:36:58.084Z,1.13
2019-01-28T07:39:27.432Z,1.30
2019-01-28T07:41:56.330Z,1.17
2019-01-28T07:44:25.746Z,1.00
2019-01-28T07:46:54.622Z,1.80
2019-01-28T07:49:23.518Z,1.43
2019-01-28T07:51:52.423Z,1.10
2019-01-28T07:54:58.382Z,1.17
2019-01-28T07:57:55.730Z,1.00
2019-01-28T08:00:28.330Z,2.10
2019-01-28T08:02:57.252Z,0.90
2019-01-28T08:05:26.379Z,0.80
2019-01-28T08:07:55.337Z,1.00
2019-01-28T08:10:24.665Z,1.10
2019-01-28T08:12:53.711Z,0.80
2019-01-28T08:15:23.357Z,0.90
2019-01-28T08:17:52.686Z,0.70
2019-01-28T08:20:21.864Z,1.10
2019-01-28T08:22:50.772Z,1.10
2019-01-28T08:25:20.063Z,1.07
2019-01-28T08:27:49.228Z,0.60
2019-01-28T08:30:19.833Z,0.97
2019-01-28T08:32:48.946Z,0.70
2019-01-28T08:38:37.783Z,1.10
2019-01-28T08:41:06.817Z,0.90
2019-01-28T08:43:35.756Z,0.97
2019-01-28T08:46:05.168Z,1.10
2019-01-28T08:48:34.129Z,0.90
2019-01-28T08:51:03.094Z,1.23
2019-01-28T08:53:32.738Z,1.17
2019-01-28T08:56:01.630Z,0.70
2019-01-28T08:58:30.987Z,0.80
2019-01-28T09:01:00.406Z,1.40
2019-01-28T09:03:48.319Z,0.70
2019-01-28T09:06:17.269Z,1.00
2019-01-28T09:08:46.351Z,0.97
2019-01-28T09:11:15.773Z,1.00
2019-01-28T09:13:44.732Z,0.80
2019-01-28T09:16:13.678Z,0.60
2019-01-28T09:18:42.605Z,0.97
2019-01-28T09:21:11.555Z,0.80
2019-01-28T09:23:40.854Z,0.80
2019-01-28T09:26:09.802Z,0.77
2019-01-28T09:28:38.712Z,0.77
2019-01-28T09:31:07.708Z,1.00
2019-01-28T09:33:36.655Z,1.13
2019-01-28T09:36:07.322Z,0.93
2019-01-28T09:38:36.215Z,0.60
2019-01-28T09:41:05.715Z,0.80
2019-01-28T09:43:35.022Z,1.10
2019-01-28T09:46:10.224Z,0.90
2019-01-28T09:48:39.214Z,1.80
2019-01-28T09:54:33.865Z,0.70
2019-01-28T09:57:03.310Z,1.10
2019-01-28T09:59:32.256Z,1.27
2019-01-28T10:02:12.752Z,0.73
2019-01-28T10:04:41.711Z,0.70
2019-01-28T10:07:10.619Z,0.90
2019-01-28T10:09:39.522Z,0.90
2019-01-28T10:12:08.439Z,1.13
2019-01-28T10:14:37.803Z,0.83
2019-01-28T10:17:07.275Z,0.77
2019-01-28T10:19:36.144Z,1.00
2019-01-28T10:22:05.733Z,0.77
2019-01-28T10:25:07.672Z,0.90
2019-01-28T10:27:59.568Z,1.10
2019-01-28T10:30:30.203Z,1.10
2019-01-28T10:32:59.144Z,0.97
2019-01-28T10:35:28.778Z,1.00
2019-01-28T10:38:16.032Z,0.70
2019-01-28T10:40:46.237Z,1.17
2019-01-28T10:43:15.242Z,0.90
2019-01-28T10:45:44.156Z,0.80
2019-01-28T10:48:13.238Z,0.70
2019-01-28T10:50:42.774Z,0.80
2019-01-28T10:53:12.136Z,0.90
2019-01-28T10:55:41.438Z,0.80
2019-01-28T10:58:10.740Z,1.07
2019-01-28T11:00:40.920Z,0.77
2019-01-28T11:03:10.292Z,0.80
2019-01-28T11:05:39.217Z,0.90
2019-01-28T11:08:08.157Z,1.00
2019-01-28T11:10:37.508Z,0.90
2019-01-28T11:13:07.183Z,0.90
2019-01-28T11:15:36.089Z,1.07
2019-01-28T11:18:06.626Z,1.10
2019-01-28T11:24:11.798Z,1.20
2019-01-28T11:26:40.763Z,0.73
2019-01-28T11:29:09.692Z,0.90
2019-01-28T11:31:39.030Z,0.77
2019-01-28T11:34:07.964Z,0.73
2019-01-28T11:36:43.186Z,1.20
2019-01-28T11:39:12.600Z,1.20
2019-01-28T11:41:41.607Z,1.07
2019-01-28T11:44:11.125Z,0.97
2019-01-28T11:46:41.213Z,1.40
2019-01-28T11:49:10.282Z,0.90
2019-01-28T11:52:00.438Z,1.20
2019-01-28T11:54:29.810Z,1.10
2019-01-28T11:56:59.151Z,1.13
2019-01-28T11:59:28.081Z,1.00
2019-01-28T12:04:59.910Z,1.40
2019-01-28T12:07:31.288Z,0.90
2019-01-28T12:10:00.257Z,1.40
2019-01-28T12:12:29.211Z,1.37
2019-01-28T12:15:01.318Z,1.20
2019-01-28T12:17:31.975Z,0.83
2019-01-28T12:20:01.237Z,1.30
2019-01-28T12:22:30.555Z,1.33
2019-01-28T12:25:18.473Z,1.40
2019-01-28T12:27:47.418Z,1.23
2019-01-28T12:30:17.672Z,1.17
2019-01-28T12:32:55.212Z,1.47
2019-01-28T12:35:24.257Z,2.50
2019-01-28T12:37:53.672Z,1.70
2019-01-28T12:40:34.202Z,1.03
2019-01-28T12:43:03.243Z,1.20
2019-01-28T12:45:32.144Z,1.30
2019-01-28T12:48:01.084Z,1.67
2019-01-28T12:50:41.444Z,1.13
2019-01-28T12:53:10.425Z,1.07
2019-01-28T12:55:39.788Z,1.07
2019-01-28T12:58:08.726Z,1.40
2019-01-28T13:00:42.740Z,1.03
2019-01-28T13:03:23.106Z,1.40
2019-01-28T13:05:52.387Z,1.27
2019-01-28T13:08:21.324Z,1.33
2019-01-28T13:10:50.415Z,1.00
2019-01-28T13:13:41.167Z,1.10
2019-01-28T13:16:08.924Z,1.00
2019-01-28T13:18:38.244Z,0.97
2019-01-28T13:21:07.228Z,1.00
2019-01-28T13:23:36.192Z,0.80
2019-01-28T13:26:06.010Z,1.00
2019-01-28T13:28:34.963Z,1.00
2019-01-28T13:31:03.919Z,1.20
2019-01-28T13:33:32.946Z,1.00
2019-01-28T13:36:03.215Z,1.13
2019-01-28T13:38:32.560Z,1.03
2019-01-28T13:41:01.494Z,0.93
2019-01-28T13:43:30.423Z,3.30
2019-01-28T13:45:59.342Z,2.90
2019-01-28T13:48:28.277Z,2.50
2019-01-28T13:50:57.709Z,2.10
2019-01-28T13:53:27.113Z,1.40
2019-01-28T13:55:56.482Z,1.30
2019-01-28T13:58:25.813Z,1.40
2019-01-28T14:00:54.833Z,2.47
2019-01-28T14:03:23.794Z,1.20
2019-01-28T14:05:52.735Z,2.17
2019-01-28T14:08:21.664Z,1.20
2019-01-28T14:14:13.741Z,0.63
2019-01-28T14:16:43.033Z,1.03
2019-01-28T14:19:12.015Z,0.90
2019-01-28T14:21:41.412Z,0.93
2019-01-28T14:24:18.808Z,1.00
2019-01-28T14:26:47.790Z,1.37
2019-01-28T14:29:16.835Z,1.33
2019-01-28T14:31:46.118Z,0.73
2019-01-28T14:34:15.005Z,1.03
2019-01-28T14:36:43.925Z,0.70
2019-01-28T14:39:13.805Z,0.90
2019-01-28T14:41:43.453Z,1.20
2019-01-28T14:44:13.558Z,0.90
2019-01-28T14:46:42.719Z,0.90
2019-01-28T14:49:12.118Z,1.50
2019-01-28T14:51:54.176Z,1.30
2019-01-28T14:54:40.853Z,1.53
2019-01-28T14:57:21.996Z,2.23
2019-01-28T15:00:14.056Z,2.10
2019-01-28T15:02:50.141Z,1.60
2019-01-28T15:05:19.111Z,0.80
2019-01-28T15:07:48.705Z,1.20
2019-01-28T15:10:18.007Z,1.10
2019-01-28T15:19:53.222Z,0.90
2019-01-28T15:22:35.017Z,1.10
2019-01-28T15:25:04.887Z,1.00
2019-01-28T15:27:34.191Z,1.00
2019-01-28T15:30:03.254Z,1.10
2019-01-28T15:32:41.185Z,1.10
2019-01-28T15:35:11.461Z,1.00
2019-01-28T15:40:52.376Z,1.37
2019-01-28T15:43:23.742Z,1.10
2019-01-28T15:45:52.677Z,1.20
2019-01-28T15:48:24.344Z,1.67
2019-01-28T15:51:05.185Z,2.77
2019-01-28T15:53:36.539Z,2.17
2019-01-28T15:56:05.518Z,2.90
2019-01-28T15:58:34.606Z,4.73
2019-01-28T16:01:03.811Z,2.80
2019-01-28T16:03:33.169Z,3.20
2019-01-28T16:06:17.874Z,4.40
2019-01-28T16:08:46.816Z,4.97
2019-01-28T16:11:31.500Z,6.10
2019-01-28T16:14:00.408Z,4.87
2019-01-28T16:16:30.048Z,4.10
2019-01-28T16:18:59.012Z,2.40
2019-01-28T16:21:46.089Z,5.50
2019-01-28T16:24:16.146Z,2.20
2019-01-28T16:26:46.215Z,2.77
2019-01-28T16:29:15.147Z,2.07
2019-01-28T16:31:44.471Z,1.50
2019-01-28T16:34:13.827Z,1.80
2019-01-28T16:36:42.752Z,2.23
2019-01-28T16:39:11.685Z,1.93
2019-01-28T16:41:56.634Z,2.07
2019-01-28T16:44:25.658Z,1.80
2019-01-28T16:46:54.600Z,2.40
2019-01-28T16:49:23.894Z,2.40
2019-01-28T16:51:52.833Z,1.93
2019-01-28T16:54:21.722Z,2.43
2019-01-28T16:56:52.702Z,2.40
2019-01-28T16:59:21.739Z,1.80
2019-01-28T17:01:52.780Z,2.40
2019-01-28T17:04:47.059Z,2.20
2019-01-28T17:07:10.371Z,4.57
2019-01-28T17:09:39.598Z,3.10
2019-01-28T17:12:08.814Z,3.50
2019-01-28T17:14:37.714Z,4.73
2019-01-28T17:17:13.441Z,3.37
2019-01-28T17:19:42.802Z,3.90
2019-01-28T17:22:11.708Z,3.10
2019-01-28T17:24:41.282Z,2.77
2019-01-28T17:27:10.540Z,5.83
2019-01-28T17:29:39.414Z,3.40
2019-01-28T17:32:08.389Z,5.13
2019-01-28T17:34:37.290Z,5.20
2019-01-28T17:37:06.198Z,3.90
2019-01-28T17:39:35.119Z,4.20
2019-01-28T17:42:16.406Z,4.27
2019-01-28T17:44:45.338Z,3.40
2019-01-28T17:47:14.557Z,3.90
2019-01-28T17:49:43.536Z,3.80
2019-01-28T17:52:12.752Z,3.60
2019-01-28T17:54:42.464Z,3.47
2019-01-28T17:57:20.261Z,4.50
2019-01-28T17:59:49.284Z,4.43
2019-01-28T18:02:24.699Z,4.63
2019-01-28T18:04:53.633Z,7.50
2019-01-28T18:07:22.609Z,9.27
2019-01-28T18:09:57.462Z,8.17
2019-01-28T18:12:26.385Z,6.20
2019-01-28T18:14:55.298Z,5.47
2019-01-28T18:17:30.546Z,5.40
2019-01-28T18:20:18.179Z,4.50
2019-01-28T18:23:06.220Z,5.70
2019-01-28T18:25:50.492Z,5.57
2019-01-28T18:28:19.695Z,5.40
2019-01-28T18:30:54.842Z,6.17
2019-01-28T18:33:47.618Z,6.50
2019-01-28T18:36:16.673Z,6.00
2019-01-28T18:38:45.582Z,6.33
2019-01-28T18:41:24.774Z,7.20
2019-01-28T18:43:53.812Z,7.00
2019-01-28T18:46:40.335Z,6.67
2019-01-28T18:49:09.405Z,7.27
2019-01-28T18:51:38.763Z,6.23
2019-01-28T18:54:07.621Z,6.57
2019-01-28T18:56:36.533Z,6.77
2019-01-28T18:59:05.470Z,6.70
2019-01-28T19:01:34.424Z,7.27
2019-01-28T19:04:26.109Z,5.10
2019-01-28T19:07:21.028Z,7.27
2019-01-28T19:17:05.550Z,5.97
2019-01-28T19:20:05.740Z,6.80
2019-01-28T19:22:34.755Z,7.07
2019-01-28T19:25:03.957Z,6.47
2019-01-28T19:27:37.336Z,5.47
2019-01-28T19:30:10.987Z,5.63
2019-01-28T19:33:07.679Z,6.90
2019-01-28T19:35:38.677Z,6.53
2019-01-28T19:38:24.305Z,6.50
2019-01-28T19:40:53.253Z,6.43
2019-01-28T19:43:22.132Z,6.00
2019-01-28T19:46:04.707Z,6.30
2019-01-28T19:49:12.443Z,6.40
2019-01-28T19:51:50.535Z,5.50
2019-01-28T19:54:26.013Z,5.67
2019-01-28T19:56:55.380Z,5.80
2019-01-28T19:59:24.318Z,6.20
2019-01-28T20:01:53.208Z,6.53
2019-01-28T20:04:34.916Z,5.73
2019-01-28T20:07:04.284Z,5.87
2019-01-28T20:09:33.204Z,9.57
2019-01-28T20:12:02.122Z,8.53
2019-01-28T20:14:31.079Z,6.43
2019-01-28T20:17:00.015Z,7.40
2019-01-28T20:19:44.172Z,7.70
2019-01-28T20:22:19.342Z,7.20
2019-01-28T20:24:48.325Z,5.33
2019-01-28T20:27:17.647Z,6.20
2019-01-28T20:29:46.585Z,6.60
2019-01-28T20:32:16.079Z,6.40
2019-01-28T20:34:44.958Z,6.40
2019-01-28T20:40:24.620Z,7.50
2019-01-28T20:43:03.490Z,7.00
2019-01-28T20:46:03.484Z,6.83
2019-01-28T20:48:32.666Z,5.53
2019-01-28T20:51:03.663Z,6.57
2019-01-28T20:53:32.646Z,6.10
2019-01-28T20:56:01.526Z,6.70
2019-01-28T20:58:30.425Z,5.70
2019-01-28T21:01:00.074Z,4.20
2019-01-28T21:03:29.117Z,5.70
2019-01-28T21:05:58.842Z,6.07
2019-01-28T21:08:28.069Z,6.60
2019-01-28T21:13:59.274Z,5.60
2019-01-28T21:16:28.648Z,6.70
2019-01-28T21:18:57.550Z,6.40
2019-01-28T21:21:26.690Z,6.40
2019-01-28T21:23:56.063Z,6.23
2019-01-28T21:26:25.062Z,5.07
2019-01-28T21:28:54.055Z,5.87
2019-01-28T21:31:23.369Z,5.80
2019-01-28T21:34:03.775Z,5.70
2019-01-28T21:36:57.705Z,5.53
2019-01-28T21:39:26.608Z,5.40
2019-01-28T21:41:55.501Z,5.63
2019-01-28T21:44:24.838Z,5.80
2019-01-28T21:46:55.751Z,5.90
2019-01-28T21:49:24.642Z,5.13
2019-01-28T21:51:53.619Z,5.20
2019-01-28T21:54:30.356Z,5.47
2019-01-28T21:56:59.736Z,6.03
2019-01-28T21:59:28.687Z,5.60
2019-01-28T22:01:57.688Z,5.80
2019-01-28T22:04:26.634Z,5.43
2019-01-28T22:06:55.532Z,6.80
2019-01-28T22:09:24.581Z,5.67
2019-01-28T22:11:53.522Z,5.93
2019-01-28T22:14:22.937Z,7.20
2019-01-28T22:16:51.910Z,6.87
2019-01-28T22:19:21.212Z,6.50
2019-01-28T22:21:58.731Z,6.43
2019-01-28T22:24:26.883Z,5.90
2019-01-28T22:26:55.865Z,7.50
2019-01-28T22:29:24.813Z,5.97
2019-01-28T22:31:53.770Z,6.40
2019-01-28T22:34:22.749Z,7.50
2019-01-28T22:36:51.665Z,6.80
2019-01-28T22:39:20.999Z,6.73
2019-01-28T22:41:49.911Z,6.80
2019-01-28T22:44:19.326Z,6.20
2019-01-28T22:46:48.366Z,5.43
2019-01-28T22:49:17.280Z,6.20
2019-01-28T22:51:46.235Z,5.13
2019-01-28T22:57:25.974Z,5.73
2019-01-28T22:59:54.888Z,6.10
2019-01-28T23:02:23.941Z,6.00
2019-01-28T23:04:53.023Z,4.57
2019-01-28T23:07:21.988Z,5.17
2019-01-28T23:09:50.951Z,5.17
2019-01-28T23:12:23.210Z,5.90
2019-01-28T23:14:52.613Z,6.33
2019-01-28T23:17:21.559Z,5.20
2019-01-28T23:19:51.153Z,5.33
2019-01-28T23:22:20.168Z,4.80
2019-01-28T23:24:59.496Z,5.17
2019-01-28T23:27:28.859Z,5.93
2019-01-28T23:29:57.754Z,5.70
2019-01-28T23:32:26.651Z,6.20
2019-01-28T23:34:55.966Z,6.30
2019-01-28T23:37:25.363Z,5.33
2019-01-28T23:39:54.780Z,5.13
2019-01-28T23:42:23.692Z,5.33
2019-01-28T23:44:52.656Z,6.10
2019-01-28T23:47:22.038Z,5.53
2019-01-28T23:49:50.980Z,6.00
2019-01-28T23:52:25.006Z,5.57
